Time;durP1;ratioP1;P1;durP2;ratioP2;P2;SDS_P1;SDS_P2;PMS_P1;PMS_P2;Temp;Humidity;BMP_temperature;BMP_pressure;BME280_temperature;BME280_humidity;BME280_pressure;Samples;Min_cycle;Max_cycle;Signal;HPM_P1;HPM_P2
2021/09/28 00:00:44;;;;;;;4.82;1.92;;;;;;;11.59;86.43;101944.78;4978052;28;20577;-76
2021/09/28 00:03:10;;;;;;;8.88;2.22;;;;;;;11.58;86.68;101950.91;4995947;28;20154;-76
2021/09/28 00:05:35;;;;;;;5.88;2.53;;;;;;;11.56;86.62;101946.81;4994881;28;20041;-77
2021/09/28 00:08:01;;;;;;;6.13;1.90;;;;;;;11.53;86.56;101952.28;4993776;28;20052;-77
2021/09/28 00:10:27;;;;;;;8.55;2.33;;;;;;;11.49;86.52;101947.38;4993747;28;20046;-76
2021/09/28 00:12:52;;;;;;;7.72;2.00;;;;;;;11.48;86.58;101953.50;4978930;28;20132;-77
2021/09/28 00:15:18;;;;;;;11.77;2.30;;;;;;;11.47;86.73;101948.44;4978558;28;20038;-77
2021/09/28 00:17:44;;;;;;;5.80;1.90;;;;;;;11.43;86.54;101950.50;4991834;28;20030;-77
2021/09/28 00:20:11;;;;;;;8.05;2.13;;;;;;;11.39;86.57;101953.50;4979122;28;20041;-77
2021/09/28 00:22:37;;;;;;;9.52;1.80;;;;;;;11.38;86.87;101952.69;4993353;28;20029;-77
2021/09/28 00:25:05;;;;;;;9.20;2.33;;;;;;;11.36;86.91;101949.41;4978260;28;20048;-76
2021/09/28 00:27:30;;;;;;;6.15;2.25;;;;;;;11.28;86.96;101965.66;4991328;28;20042;-77
2021/09/28 00:29:56;;;;;;;8.13;2.25;;;;;;;11.25;87.54;101958.09;4991208;28;20033;-77
2021/09/28 00:32:22;;;;;;;5.75;1.90;;;;;;;11.25;87.36;101952.91;4974413;28;20036;-76
2021/09/28 00:34:47;;;;;;;5.93;1.92;;;;;;;11.23;87.56;101959.19;5007288;28;20509;-77
2021/09/28 00:37:13;;;;;;;8.77;2.20;;;;;;;11.22;87.24;101966.16;4978297;28;20413;-76
2021/09/28 00:39:39;;;;;;;7.78;2.00;;;;;;;11.21;87.34;101968.91;5003863;28;20052;-77
2021/09/28 00:42:05;;;;;;;5.57;1.55;;;;;;;11.19;87.45;101966.44;4992842;28;20080;-77
2021/09/28 00:44:39;;;;;;;9.70;1.90;;;;;;;11.18;87.58;101963.97;4977939;28;20519;-76
2021/09/28 00:47:10;;;;;;;10.05;1.63;;;;;;;11.18;87.68;101972.56;4978218;28;20647;-76
2021/09/28 00:49:41;;;;;;;4.47;1.55;;;;;;;11.19;87.45;101973.38;4991425;28;20347;-76
2021/09/28 00:52:09;;;;;;;13.40;2.38;;;;;;;11.21;87.17;101976.69;4996371;28;20643;-77
2021/09/28 00:54:37;;;;;;;11.10;1.95;;;;;;;11.14;87.24;101965.19;4979210;28;20045;-77
2021/09/28 00:57:07;;;;;;;7.05;1.83;;;;;;;11.12;87.62;101967.91;4979733;28;20041;-76
2021/09/28 00:59:39;;;;;;;9.48;1.83;;;;;;;11.12;87.55;101970.50;5000132;28;20137;-77
2021/09/28 01:02:06;;;;;;;9.68;2.13;;;;;;;11.12;87.82;101974.88;5005354;28;20541;-76
2021/09/28 01:04:32;;;;;;;7.85;2.05;;;;;;;11.12;87.69;101980.06;4992987;28;20041;-77
2021/09/28 01:07:03;;;;;;;10.73;2.17;;;;;;;11.11;87.78;101968.84;4992404;28;20045;-77
2021/09/28 01:09:31;;;;;;;9.32;2.35;;;;;;;11.09;87.64;101974.19;4991262;28;20294;-77
2021/09/28 01:11:56;;;;;;;6.05;1.65;;;;;;;11.05;87.46;101972.78;5008802;28;20037;-77
2021/09/28 01:14:22;;;;;;;9.32;2.03;;;;;;;11.03;87.77;101974.69;4979746;28;20037;-77
2021/09/28 01:16:47;;;;;;;5.95;1.40;;;;;;;11.04;87.99;101975.53;4979512;28;20025;-77
2021/09/28 01:19:13;;;;;;;4.80;1.35;;;;;;;11.04;87.83;101975.53;4993112;28;20068;-77
2021/09/28 01:21:38;;;;;;;8.52;1.50;;;;;;;11.04;88.12;101975.53;4994012;28;20077;-76
2021/09/28 01:24:06;;;;;;;9.05;2.28;;;;;;;11.02;87.90;101977.41;5009855;28;20117;-77
2021/09/28 01:26:32;;;;;;;9.38;1.83;;;;;;;11.02;87.75;101983.44;4991498;28;20116;-77
2021/09/28 01:29:00;;;;;;;4.55;1.50;;;;;;;11.02;87.71;101967.03;4990567;28;20034;-77
2021/09/28 01:31:26;;;;;;;13.20;1.85;;;;;;;11.02;87.46;101972.22;4993841;28;20049;-76
2021/09/28 01:33:52;;;;;;;5.10;1.60;;;;;;;11.01;87.56;101984.38;4978005;28;20038;-77
2021/09/28 01:36:18;;;;;;;9.85;2.65;;;;;;;11.00;87.38;101981.91;4971530;28;20040;-77
2021/09/28 01:38:43;;;;;;;7.45;1.92;;;;;;;11.00;87.33;101979.31;5000137;28;20057;-77
2021/09/28 01:41:11;;;;;;;8.20;2.35;;;;;;;10.98;86.94;101983.81;4993197;28;20095;-77
2021/09/28 01:43:36;;;;;;;7.10;1.73;;;;;;;10.97;87.11;101984.78;4990788;28;20061;-76
2021/09/28 01:46:03;;;;;;;13.88;1.88;;;;;;;10.96;87.05;101980.53;5008502;28;20455;-77
2021/09/28 01:48:42;;;;;;;8.13;1.40;;;;;;;10.95;86.65;101974.53;4985623;28;20900;-76
2021/09/28 01:51:07;;;;;;;8.27;1.58;;;;;;;10.91;86.43;101976.56;4986779;28;20041;-77
2021/09/28 01:53:33;;;;;;;16.83;3.58;;;;;;;10.88;86.62;101981.19;4991086;28;20033;-77
2021/09/28 01:55:58;;;;;;;13.93;1.77;;;;;;;10.85;86.41;101978.84;4973318;28;20034;-77
2021/09/28 01:58:24;;;;;;;12.23;2.08;;;;;;;10.82;86.33;101992.91;4989097;28;20036;-77
2021/09/28 02:00:50;;;;;;;4.38;1.60;;;;;;;10.79;86.80;101990.53;4991234;28;20041;-77
2021/09/28 02:03:16;;;;;;;5.93;1.60;;;;;;;10.78;86.78;101998.47;4995454;28;20033;-76
2021/09/28 02:05:42;;;;;;;11.55;1.80;;;;;;;10.79;87.02;102000.09;5004968;28;20030;-76
2021/09/28 02:08:08;;;;;;;10.10;2.38;;;;;;;10.78;87.19;101999.28;4988774;28;20037;-77
2021/09/28 02:10:34;;;;;;;7.82;1.58;;;;;;;10.77;87.22;101995.03;4978265;28;20245;-77
2021/09/28 02:12:59;;;;;;;4.25;2.00;;;;;;;10.77;87.53;102000.22;4989008;28;20512;-77
2021/09/28 02:15:25;;;;;;;7.75;1.50;;;;;;;10.76;87.42;102000.38;4992488;28;20033;-77
2021/09/28 02:17:50;;;;;;;11.82;2.28;;;;;;;10.74;87.26;102002.25;4973483;28;20036;-77
2021/09/28 02:20:16;;;;;;;9.63;2.35;;;;;;;10.74;87.28;101995.31;5011129;28;20375;-76
2021/09/28 02:22:41;;;;;;;12.50;2.10;;;;;;;10.74;87.42;102003.09;4990802;28;20029;-76
2021/09/28 02:25:09;;;;;;;9.63;2.10;;;;;;;10.71;87.46;101996.38;4992651;28;20049;-77
2021/09/28 02:27:35;;;;;;;8.30;2.17;;;;;;;10.71;87.24;102006.75;4988933;28;20049;-77
2021/09/28 02:30:02;;;;;;;10.38;1.98;;;;;;;10.64;86.88;102003.03;4991336;28;20100;-77
2021/09/28 02:32:28;;;;;;;10.98;1.98;;;;;;;10.59;87.33;102005.19;5010826;28;20627;-77
2021/09/28 02:34:54;;;;;;;10.90;1.77;;;;;;;10.56;87.76;101995.06;4977450;28;20037;-77
2021/09/28 02:37:19;;;;;;;15.98;1.95;;;;;;;10.55;87.89;102006.41;4988533;28;20109;-76
2021/09/28 02:39:45;;;;;;;12.55;1.83;;;;;;;10.56;88.05;102007.22;4997172;28;20034;-77
2021/09/28 02:42:11;;;;;;;6.07;1.60;;;;;;;10.56;87.97;102000.25;4980466;28;20041;-76
2021/09/28 02:44:37;;;;;;;9.85;2.17;;;;;;;10.55;87.73;102001.22;4975793;28;20462;-76
2021/09/28 02:47:03;;;;;;;6.63;1.90;;;;;;;10.54;87.86;102011.72;4995055;28;20033;-77
2021/09/28 02:49:29;;;;;;;6.72;1.75;;;;;;;10.52;87.61;102007.44;4972988;28;20045;-77
2021/09/28 02:51:54;;;;;;;8.38;1.98;;;;;;;10.51;88.31;101999.81;4986301;28;20029;-77
2021/09/28 02:54:20;;;;;;;7.20;2.03;;;;;;;10.49;88.27;102007.72;4993822;28;20534;-77
2021/09/28 02:56:45;;;;;;;8.02;1.85;;;;;;;10.50;88.03;102008.53;4995207;28;20053;-77
2021/09/28 02:59:12;;;;;;;7.88;1.83;;;;;;;10.51;88.13;102002.41;4976949;28;20022;-77
2021/09/28 03:01:37;;;;;;;5.05;1.83;;;;;;;10.50;88.18;102009.34;5011887;28;20041;-77
2021/09/28 03:04:04;;;;;;;7.78;2.00;;;;;;;10.50;88.01;102013.72;4976458;28;20087;-77
2021/09/28 03:06:29;;;;;;;8.50;1.63;;;;;;;10.48;87.96;102010.44;4997675;28;20039;-76
2021/09/28 03:08:55;;;;;;;13.50;2.47;;;;;;;10.43;87.87;102007.38;4976392;28;20022;-76
2021/09/28 03:11:20;;;;;;;6.50;2.45;;;;;;;10.41;88.10;102014.47;4980756;28;20475;-76
2021/09/28 03:13:45;;;;;;;8.20;2.20;;;;;;;10.40;88.35;102012.84;4973811;28;20065;-77
2021/09/28 03:16:11;;;;;;;7.75;2.33;;;;;;;10.37;88.25;102015.69;4974196;28;20041;-77
2021/09/28 03:18:36;;;;;;;12.05;2.35;;;;;;;10.35;88.26;102015.78;4989421;28;20022;-77
2021/09/28 03:21:02;;;;;;;12.65;3.15;;;;;;;10.36;88.24;102016.59;4998911;28;20041;-76
2021/09/28 03:23:27;;;;;;;7.85;2.53;;;;;;;10.34;88.09;102014.16;4993397;28;20060;-76
2021/09/28 03:25:53;;;;;;;10.95;2.70;;;;;;;10.32;87.97;102011.69;4978175;28;20430;-77
2021/09/28 03:28:18;;;;;;;7.90;2.38;;;;;;;10.30;88.10;102025.69;4979382;28;20041;-77
2021/09/28 03:30:44;;;;;;;9.50;2.78;;;;;;;10.28;88.17;102022.38;4979905;28;20089;-77
2021/09/28 03:33:09;;;;;;;10.88;2.65;;;;;;;10.28;88.07;102023.22;4976153;28;20030;-77
2021/09/28 03:35:35;;;;;;;6.63;2.50;;;;;;;10.29;88.29;102027.47;4977953;28;20026;-77
2021/09/28 03:38:00;;;;;;;9.73;2.60;;;;;;;10.27;88.05;102025.94;5009895;28;20042;-77
2021/09/28 03:40:29;;;;;;;9.88;2.00;;;;;;;10.23;87.92;102025.38;4994867;28;20044;-77
2021/09/28 03:42:55;;;;;;;6.05;2.00;;;;;;;10.19;87.99;102021.38;4991146;28;20036;-77
2021/09/28 03:45:22;;;;;;;15.48;2.97;;;;;;;10.16;87.84;102026.81;4989139;28;20097;-76
2021/09/28 03:47:47;;;;;;;5.25;1.88;;;;;;;10.15;88.15;102027.72;4994644;28;20025;-77
2021/09/28 03:50:12;;;;;;;11.88;2.83;;;;;;;10.13;87.99;102025.28;5013000;28;20297;-76
2021/09/28 03:52:38;;;;;;;9.75;2.00;;;;;;;10.12;87.82;102030.59;4992813;28;20040;-77
2021/09/28 03:55:04;;;;;;;9.60;2.88;;;;;;;10.11;87.90;102028.94;4978523;28;20060;-76
2021/09/28 03:57:30;;;;;;;7.43;2.13;;;;;;;10.13;87.89;102032.22;4996539;28;20113;-77
2021/09/28 03:59:56;;;;;;;6.15;2.17;;;;;;;10.12;87.43;102031.41;4993599;28;20463;-76
2021/09/28 04:02:21;;;;;;;11.80;2.30;;;;;;;10.11;87.31;102034.97;4993227;28;20053;-77
2021/09/28 04:04:47;;;;;;;7.75;2.13;;;;;;;10.08;87.20;102035.19;5011921;28;20022;-76
2021/09/28 04:07:13;;;;;;;8.15;2.35;;;;;;;10.06;87.16;102033.69;4975406;28;20049;-77
2021/09/28 04:09:39;;;;;;;5.93;1.83;;;;;;;10.04;87.37;102038.13;4993656;28;20431;-76
2021/09/28 04:12:06;;;;;;;11.57;2.47;;;;;;;10.01;87.47;102039.22;4990288;28;20058;-77
2021/09/28 04:14:32;;;;;;;10.63;2.65;;;;;;;9.99;87.41;102041.09;4990642;28;20414;-77
2021/09/28 04:16:57;;;;;;;7.65;2.50;;;;;;;9.98;87.89;102049.81;4990902;28;20128;-77
2021/09/28 04:19:23;;;;;;;12.98;2.33;;;;;;;9.95;87.84;102050.06;4993943;28;20064;-77
2021/09/28 04:21:49;;;;;;;9.32;2.00;;;;;;;9.94;88.04;102053.59;4998253;28;20133;-77
2021/09/28 04:24:33;;;;;;;14.35;1.70;;;;;;;9.93;87.86;102050.19;4991016;28;20488;-77
2021/09/28 04:26:59;;;;;;;8.27;2.22;;;;;;;9.91;87.76;102052.09;4992250;28;20450;-77
2021/09/28 04:29:25;;;;;;;9.65;2.30;;;;;;;9.91;87.92;102048.69;4992024;28;20125;-77
2021/09/28 04:31:51;;;;;;;10.45;2.58;;;;;;;9.90;87.77;102058.19;4994614;28;20665;-77
2021/09/28 04:34:16;;;;;;;8.13;2.45;;;;;;;9.89;87.84;102058.34;5004702;28;20035;-76
2021/09/28 04:36:42;;;;;;;7.35;2.10;;;;;;;9.83;87.79;102062.22;4993419;28;20696;-77
2021/09/28 04:39:08;;;;;;;4.25;1.70;;;;;;;9.82;87.78;102064.94;5001854;28;20033;-77
2021/09/28 04:41:34;;;;;;;5.22;1.50;;;;;;;9.78;87.67;102066.13;4995051;28;20042;-77
2021/09/28 04:44:00;;;;;;;6.72;1.73;;;;;;;9.75;87.78;102062.00;4972047;28;20034;-77
2021/09/28 04:46:28;;;;;;;8.30;1.77;;;;;;;9.74;88.12;102060.34;4985180;28;20068;-77
2021/09/28 04:48:53;;;;;;;6.38;2.42;;;;;;;9.74;88.08;102058.59;4994843;28;20108;-77
2021/09/28 04:51:19;;;;;;;5.85;2.05;;;;;;;9.71;87.45;102063.19;4977133;28;20046;-77
2021/09/28 04:53:45;;;;;;;7.25;1.88;;;;;;;9.69;88.06;102062.47;4995902;28;20497;-77
2021/09/28 04:56:11;;;;;;;7.13;2.10;;;;;;;9.66;87.54;102062.69;4994139;28;20050;-77
2021/09/28 04:58:36;;;;;;;11.13;2.10;;;;;;;9.61;87.77;102070.03;5014886;28;20049;-77
2021/09/28 05:01:02;;;;;;;8.55;2.42;;;;;;;9.58;87.79;102063.31;4984055;28;20034;-77
2021/09/28 05:03:28;;;;;;;11.30;2.10;;;;;;;9.57;87.76;102069.44;4996501;28;20493;-77
2021/09/28 05:05:53;;;;;;;8.18;2.42;;;;;;;9.55;87.79;102069.56;5001945;28;20047;-77
2021/09/28 05:08:19;;;;;;;3.33;1.77;;;;;;;9.55;87.76;102073.91;4996972;28;20434;-76
2021/09/28 05:10:47;;;;;;;8.98;2.70;;;;;;;9.55;87.66;102082.50;4988991;28;20037;-77
2021/09/28 05:13:13;;;;;;;4.85;2.08;;;;;;;9.54;87.89;102077.44;4977291;28;20056;-77
2021/09/28 05:15:39;;;;;;;4.63;2.08;;;;;;;9.51;87.55;102081.09;4979807;28;20120;-77
2021/09/28 05:18:05;;;;;;;7.03;2.40;;;;;;;9.50;87.72;102074.25;5004485;28;20033;-77
2021/09/28 05:20:32;;;;;;;12.13;2.45;;;;;;;9.49;87.72;102074.38;4986935;28;20041;-77
2021/09/28 05:23:02;;;;;;;8.35;2.63;;;;;;;9.47;87.51;102087.41;4982416;28;20540;-77
2021/09/28 05:25:27;;;;;;;10.73;2.80;;;;;;;9.46;87.59;102090.97;4986557;28;20029;-77
2021/09/28 05:27:54;;;;;;;7.93;2.03;;;;;;;9.45;87.64;102085.91;4993558;28;20049;-77
2021/09/28 05:30:20;;;;;;;8.65;1.70;;;;;;;9.44;87.60;102092.84;4982762;28;20064;-77
2021/09/28 05:32:46;;;;;;;7.45;1.92;;;;;;;9.42;87.34;102093.88;5001178;28;20065;-77
2021/09/28 05:35:12;;;;;;;6.18;1.70;;;;;;;9.41;87.40;102095.66;4994380;28;20038;-77
2021/09/28 05:37:38;;;;;;;11.20;3.30;;;;;;;9.41;87.46;102095.66;4990120;28;20072;-77
2021/09/28 05:40:05;;;;;;;9.13;1.80;;;;;;;9.40;87.56;102093.19;4980858;28;20026;-77
2021/09/28 05:42:30;;;;;;;8.65;2.38;;;;;;;9.39;87.59;102094.97;4980658;28;20045;-77
2021/09/28 05:44:56;;;;;;;5.88;1.55;;;;;;;9.40;87.36;102100.94;4985170;28;20022;-77
2021/09/28 05:47:22;;;;;;;10.82;2.28;;;;;;;9.40;87.43;102106.13;4987387;28;20026;-77
2021/09/28 05:49:47;;;;;;;5.15;1.92;;;;;;;9.38;87.07;102097.66;4992894;28;20026;-77
2021/09/28 05:52:14;;;;;;;5.20;1.50;;;;;;;9.37;87.25;102096.84;4979958;28;20040;-77
2021/09/28 05:54:49;;;;;;;8.70;1.75;;;;;;;9.38;87.54;102098.50;4991324;28;20688;-77
2021/09/28 05:57:18;;;;;;;9.07;2.28;;;;;;;9.41;87.81;102100.03;4979238;28;20128;-77
2021/09/28 05:59:43;;;;;;;7.25;1.88;;;;;;;9.40;88.02;102101.81;4995921;28;20049;-77
2021/09/28 06:02:09;;;;;;;8.15;2.28;;;;;;;9.44;87.98;102104.97;4977190;28;20433;-77
2021/09/28 06:04:35;;;;;;;7.60;2.08;;;;;;;9.45;88.48;102097.06;4992286;28;20549;-77
2021/09/28 06:07:02;;;;;;;6.65;2.15;;;;;;;9.47;88.29;102099.56;4977157;28;20033;-77
2021/09/28 06:09:28;;;;;;;10.98;2.45;;;;;;;9.49;88.79;102103.69;4991907;28;20562;-77
2021/09/28 06:11:54;;;;;;;13.48;2.47;;;;;;;9.53;89.03;102102.50;4990606;28;20037;-77
2021/09/28 06:14:20;;;;;;;9.02;2.25;;;;;;;9.56;88.88;102106.63;4984774;28;20398;-77
2021/09/28 06:16:45;;;;;;;11.73;1.88;;;;;;;9.60;88.76;102107.22;4992659;28;20045;-77
2021/09/28 06:19:11;;;;;;;7.47;3.00;;;;;;;9.64;88.95;102100.84;4977372;28;20057;-77
2021/09/28 06:21:36;;;;;;;5.80;2.00;;;;;;;9.67;88.91;102100.63;4975000;28;20380;-77
2021/09/28 06:24:02;;;;;;;13.35;2.63;;;;;;;9.72;88.97;102103.69;5009691;28;20528;-77
2021/09/28 06:26:27;;;;;;;7.80;2.33;;;;;;;9.79;88.88;102097.06;4987897;28;20034;-77
2021/09/28 06:28:53;;;;;;;6.18;1.83;;;;;;;9.88;88.82;102104.13;4980044;28;20064;-77
2021/09/28 06:31:18;;;;;;;8.80;1.92;;;;;;;10.14;88.49;102109.88;4976124;28;20037;-77
2021/09/28 06:33:44;;;;;;;5.82;1.80;;;;;;;10.60;87.85;102107.16;4995061;28;20042;-77
2021/09/28 06:36:09;;;;;;;10.60;1.73;;;;;;;11.19;86.39;102106.63;4992888;28;20042;-77
2021/09/28 06:38:35;;;;;;;9.73;1.88;;;;;;;11.79;84.41;102105.91;4992015;28;20167;-77
2021/09/28 06:41:01;;;;;;;8.65;2.10;;;;;;;12.36;82.37;102108.81;5007126;28;20128;-77
2021/09/28 06:43:26;;;;;;;11.10;2.25;;;;;;;12.87;79.93;102104.28;4990384;28;20053;-77
2021/09/28 06:45:52;;;;;;;5.50;1.70;;;;;;;13.37;78.05;102104.88;5009806;28;20030;-79
2021/09/28 06:48:18;;;;;;;8.07;1.80;;;;;;;13.77;76.05;102101.13;4992287;28;20034;-79
2021/09/28 06:50:45;;;;;;;6.70;1.67;;;;;;;14.19;75.00;102092.75;5011723;28;20029;-78
2021/09/28 06:53:11;;;;;;;8.85;2.92;;;;;;;14.58;73.69;102086.47;4989228;28;20144;-77
2021/09/28 06:55:37;;;;;;;33.75;10.98;;;;;;;14.88;72.08;102097.41;5006088;28;20506;-76
2021/09/28 06:58:06;;;;;;;7.70;2.00;;;;;;;15.14;68.71;102084.34;4986631;28;20406;-77
2021/09/28 07:00:35;;;;;;;10.93;2.08;;;;;;;15.47;68.14;102082.72;5008432;28;20037;-76
2021/09/28 07:03:01;;;;;;;8.40;1.60;;;;;;;15.64;67.69;102088.03;4989591;28;20038;-79
2021/09/28 07:05:26;;;;;;;5.70;1.63;;;;;;;16.04;66.90;102089.16;5005278;28;20052;-77
2021/09/28 07:07:52;;;;;;;6.22;1.40;;;;;;;16.27;67.14;102092.75;4997305;28;20065;-78
2021/09/28 07:10:36;;;;;;;9.52;2.42;;;;;;;16.50;66.30;102103.44;5010547;28;20328;-77
2021/09/28 07:13:02;;;;;;;10.05;1.80;;;;;;;16.58;63.84;102094.75;5005575;28;20033;-77
2021/09/28 07:15:27;;;;;;;7.00;2.00;;;;;;;16.65;64.98;102090.50;4971332;28;20060;-77
2021/09/28 07:17:54;;;;;;;5.90;1.40;;;;;;;17.01;64.73;102099.78;4974543;28;20030;-78
2021/09/28 07:20:20;;;;;;;8.52;1.65;;;;;;;17.39;63.86;102098.22;5004117;28;20038;-77
2021/09/28 07:22:45;;;;;;;9.85;1.73;;;;;;;17.22;64.39;102092.22;5005913;28;20033;-77
2021/09/28 07:25:11;;;;;;;6.93;1.20;;;;;;;17.59;62.85;102103.88;4972388;28;20030;-78
2021/09/28 07:27:37;;;;;;;7.53;1.25;;;;;;;17.79;62.44;102098.22;4991466;28;20510;-77
2021/09/28 07:30:04;;;;;;;8.57;1.92;;;;;;;17.62;62.13;102103.53;4994779;28;20098;-78
2021/09/28 07:32:30;;;;;;;10.45;1.40;;;;;;;17.91;63.05;102107.34;4996083;28;20123;-77
2021/09/28 07:34:56;;;;;;;7.45;1.67;;;;;;;18.03;60.28;102100.72;5005764;28;20436;-78
2021/09/28 07:37:27;;;;;;;10.30;1.35;;;;;;;18.15;58.46;102098.50;5003738;28;20029;-79
2021/09/28 07:39:56;;;;;;;6.97;1.60;;;;;;;18.49;59.45;102099.91;4973531;28;20022;-78
2021/09/28 07:42:22;;;;;;;7.85;1.25;;;;;;;18.56;58.47;102100.00;4988119;28;20033;-78
2021/09/28 07:44:47;;;;;;;7.57;1.30;;;;;;;18.58;59.41;102106.72;4990109;28;20049;-78
2021/09/28 07:47:14;;;;;;;5.35;1.85;;;;;;;18.59;59.01;102099.63;4985816;28;20045;-77
2021/09/28 07:49:40;;;;;;;4.10;1.20;;;;;;;18.65;59.83;102105.00;4986337;28;20415;-79
2021/09/28 07:52:06;;;;;;;7.15;1.52;;;;;;;18.50;59.71;102101.53;4998337;28;20042;-78
2021/09/28 07:54:34;;;;;;;8.90;1.17;;;;;;;18.32;59.57;102103.66;5004917;28;20096;-78
2021/09/28 07:57:03;;;;;;;11.10;1.40;;;;;;;18.18;59.30;102110.47;5015307;28;20120;-78
2021/09/28 07:59:29;;;;;;;7.25;1.30;;;;;;;18.38;59.66;102110.81;5004086;28;20124;-78
2021/09/28 08:01:54;;;;;;;7.43;1.45;;;;;;;18.68;59.92;102106.47;4987889;28;20030;-79
2021/09/28 08:04:20;;;;;;;9.57;1.45;;;;;;;18.97;56.32;102105.72;5005528;28;20037;-78
2021/09/28 08:06:46;;;;;;;4.70;1.17;;;;;;;18.83;59.24;102098.63;4990512;28;20033;-78
2021/09/28 08:09:13;;;;;;;9.30;1.15;;;;;;;18.80;59.34;102097.19;4987838;28;20038;-78
2021/09/28 08:11:38;;;;;;;8.68;1.88;;;;;;;18.67;60.34;102094.34;4974384;28;20029;-78
2021/09/28 08:14:04;;;;;;;5.75;1.63;;;;;;;18.59;58.70;102097.00;5011881;28;20048;-79
2021/09/28 08:16:30;;;;;;;11.20;1.77;;;;;;;18.93;57.15;102090.47;5011928;28;20026;-79
2021/09/28 08:18:56;;;;;;;9.63;1.60;;;;;;;19.10;58.30;102094.59;5013036;28;20038;-79
2021/09/28 08:21:21;;;;;;;8.85;1.42;;;;;;;19.22;56.48;102098.38;5011732;28;20042;-78
2021/09/28 08:23:47;;;;;;;12.95;1.92;;;;;;;19.36;57.12;102090.66;5004209;28;20037;-78
2021/09/28 08:29:09;;;;;;;9.70;1.55;;;;;;;19.67;56.41;102098.34;5018805;28;20056;-78
2021/09/28 08:31:39;;;;;;;12.88;1.52;;;;;;;19.43;55.89;102096.81;4994505;28;20116;-78
2021/09/28 08:34:06;;;;;;;8.05;1.63;;;;;;;19.39;55.93;102106.91;4979249;28;20038;-78
2021/09/28 08:36:32;;;;;;;9.57;1.48;;;;;;;19.44;55.87;102093.22;5022243;28;20051;-78
2021/09/28 08:38:57;;;;;;;6.35;1.55;;;;;;;19.36;56.63;102095.94;5002700;28;20042;-79
2021/09/28 08:41:23;;;;;;;9.90;1.20;;;;;;;19.37;54.58;102098.38;5011831;28;20037;-79
2021/09/28 08:43:49;;;;;;;14.52;1.35;;;;;;;19.40;56.67;102095.41;5008760;28;20475;-78
2021/09/28 08:46:16;;;;;;;9.07;1.45;;;;;;;19.25;56.65;102095.41;5000490;28;20422;-79
2021/09/28 08:48:43;;;;;;;7.53;1.63;;;;;;;19.17;55.40;102092.03;4989296;28;20120;-78
2021/09/28 08:51:10;;;;;;;8.18;1.60;;;;;;;18.91;56.89;102092.47;5010582;28;20080;-79
2021/09/28 08:53:36;;;;;;;9.55;1.60;;;;;;;18.97;57.03;102091.78;4976974;28;20042;-79
2021/09/28 08:56:03;;;;;;;8.48;1.23;;;;;;;19.09;58.05;102085.06;4990390;28;20042;-79
2021/09/28 08:58:28;;;;;;;13.55;1.52;;;;;;;19.23;58.51;102094.78;4988861;28;20065;-79
2021/09/28 09:01:04;;;;;;;7.05;1.60;;;;;;;19.23;58.73;102089.50;4976916;28;20041;-79
2021/09/28 09:03:32;;;;;;;8.68;1.25;;;;;;;19.18;59.41;102083.97;4986263;28;20070;-79
2021/09/28 09:06:01;;;;;;;6.47;1.30;;;;;;;18.99;58.74;102089.78;5007990;28;20041;-79
2021/09/28 09:08:33;;;;;;;8.77;1.52;;;;;;;18.88;59.56;102088.41;4977092;28;20040;-80
2021/09/28 09:11:11;;;;;;;9.25;1.70;;;;;;;18.67;59.68;102091.72;4987951;28;20038;-80
2021/09/28 09:13:38;;;;;;;7.22;1.20;;;;;;;18.49;60.82;102086.75;4991340;28;20041;-79
2021/09/28 09:16:05;;;;;;;4.95;1.40;;;;;;;18.32;61.96;102085.28;4994137;28;20036;-80
2021/09/28 09:18:33;;;;;;;14.05;2.17;;;;;;;18.11;60.43;102088.53;4974115;28;20065;-80
2021/09/28 09:21:00;;;;;;;7.60;1.35;;;;;;;18.08;63.26;102087.06;5007626;28;20038;-81
2021/09/28 09:23:28;;;;;;;11.90;1.65;;;;;;;18.17;60.97;102091.28;5009515;28;20041;-79
2021/09/28 09:26:16;;;;;;;9.73;1.33;;;;;;;17.92;63.06;102095.88;4995264;28;20052;-79
2021/09/28 09:28:50;;;;;;;10.10;2.22;;;;;;;17.82;63.64;102088.19;5008057;28;20037;-77
2021/09/28 09:31:30;;;;;;;13.30;1.92;;;;;;;17.84;62.47;102088.03;4990300;28;20041;-80
2021/09/28 09:34:14;;;;;;;9.55;2.38;;;;;;;17.77;63.75;102082.63;4991841;28;20119;-79
2021/09/28 09:36:42;;;;;;;9.32;1.88;;;;;;;17.70;64.58;102085.13;4993440;28;20148;-81
2021/09/28 09:39:11;;;;;;;9.90;1.35;;;;;;;17.68;64.86;102081.84;4993320;28;20143;-80
2021/09/28 09:41:39;;;;;;;10.82;1.50;;;;;;;17.84;64.00;102080.16;4992798;28;20080;-79
2021/09/28 09:44:17;;;;;;;12.15;1.55;;;;;;;17.90;62.73;102075.06;4993433;28;20478;-82
2021/09/28 09:46:48;;;;;;;8.85;1.70;;;;;;;17.82;62.86;102082.94;4994985;28;20514;-80
2021/09/28 09:49:22;;;;;;;8.45;1.73;;;;;;;17.75;60.49;102076.75;4974863;28;20026;-80
2021/09/28 09:51:52;;;;;;;8.60;2.13;;;;;;;17.76;62.64;102083.63;4989516;28;20052;-80
2021/09/28 09:54:46;;;;;;;6.32;1.23;;;;;;;18.02;61.41;102078.09;4990545;28;20048;-80
2021/09/28 09:57:13;;;;;;;10.75;1.55;;;;;;;17.97;62.47;102072.56;5007723;28;20050;-79
2021/09/28 09:59:39;;;;;;;14.63;1.88;;;;;;;17.90;62.62;102075.06;5007366;28;20048;-80
2021/09/28 10:02:07;;;;;;;10.02;2.55;;;;;;;17.92;61.25;102072.25;4978547;28;20112;-77
2021/09/28 10:04:33;;;;;;;10.63;2.33;;;;;;;17.93;60.34;102065.19;4989202;28;20351;-81
2021/09/28 10:07:01;;;;;;;21.25;3.17;;;;;;;17.83;60.47;102062.78;4996908;28;20489;-81
2021/09/28 10:09:34;;;;;;;11.27;1.30;;;;;;;17.94;61.33;102062.41;4987592;28;20434;-78
2021/09/28 10:12:03;;;;;;;9.18;2.65;;;;;;;18.11;61.31;102068.34;4993007;28;20038;-80
2021/09/28 10:14:45;;;;;;;9.80;1.23;;;;;;;18.05;61.36;102058.56;5009559;28;20042;-77
2021/09/28 10:17:29;;;;;;;11.45;1.77;;;;;;;17.94;59.62;102062.41;5013191;28;20112;-78
2021/09/28 10:19:57;;;;;;;9.32;1.92;;;;;;;17.99;60.23;102059.25;4972321;28;20069;-82
2021/09/28 10:22:35;;;;;;;14.48;1.90;;;;;;;18.15;60.13;102063.56;4985986;28;20088;-81
2021/09/28 10:25:19;;;;;;;12.90;2.08;;;;;;;18.14;61.66;102059.31;4990473;28;20490;-81
2021/09/28 10:27:46;;;;;;;12.55;1.75;;;;;;;18.18;60.08;102045.66;4983609;28;20061;-81
2021/09/28 10:30:31;;;;;;;9.50;1.52;;;;;;;18.30;60.15;102048.69;4996632;28;20115;-81
2021/09/28 10:33:22;;;;;;;8.63;1.20;;;;;;;18.24;59.35;102046.78;4970735;28;20423;-79
2021/09/28 10:36:13;;;;;;;14.13;1.67;;;;;;;18.42;60.55;102039.41;4984710;28;20406;-80
2021/09/28 10:38:53;;;;;;;12.30;1.67;;;;;;;18.58;59.15;102041.06;4987436;28;20033;-80
2021/09/28 10:41:31;;;;;;;9.07;1.70;;;;;;;18.48;59.38;102043.13;4988450;28;20034;-79
2021/09/28 10:44:37;;;;;;;11.38;1.80;;;;;;;18.57;57.12;102036.81;4983085;28;20042;-79
2021/09/28 10:47:06;;;;;;;6.97;1.58;;;;;;;18.51;59.62;102032.25;4998589;28;20038;-78
2021/09/28 10:49:34;;;;;;;10.98;2.10;;;;;;;18.42;60.02;102034.16;4991170;28;20034;-78
2021/09/28 10:52:22;;;;;;;11.18;1.20;;;;;;;18.65;56.87;102036.72;4967385;28;20509;-78
2021/09/28 10:55:05;;;;;;;13.90;2.17;;;;;;;18.42;57.59;102028.91;4991397;28;20041;-81
2021/09/28 10:58:01;;;;;;;8.52;2.30;;;;;;;18.42;57.57;102023.66;4993122;28;20458;-78
2021/09/28 11:00:56;;;;;;;10.50;1.23;;;;;;;18.45;59.65;102019.84;5007842;28;20044;-78
2021/09/28 11:03:40;;;;;;;8.00;1.08;;;;;;;18.37;58.36;102018.09;4990580;28;20041;-80
2021/09/28 11:06:07;;;;;;;8.00;1.65;;;;;;;18.47;58.39;102013.41;4976940;28;20103;-80
2021/09/28 11:08:36;;;;;;;9.93;1.65;;;;;;;18.33;57.07;102018.63;4974232;28;20037;-80
2021/09/28 11:11:04;;;;;;;9.32;1.88;;;;;;;18.34;58.60;102007.94;4980839;28;20045;-79
2021/09/28 11:13:34;;;;;;;6.47;1.20;;;;;;;18.34;58.84;102007.94;5012816;28;20068;-79
2021/09/28 11:16:02;;;;;;;13.00;1.33;;;;;;;18.36;55.59;101999.91;4978465;28;20034;-74
2021/09/28 11:18:28;;;;;;;6.30;1.08;;;;;;;18.37;56.11;101994.47;4972120;28;20029;-79
2021/09/28 11:21:13;;;;;;;12.88;1.25;;;;;;;18.45;54.03;101996.22;4989176;28;20080;-78
2021/09/28 11:23:40;;;;;;;7.90;1.60;;;;;;;18.42;55.05;101993.94;4984077;28;20404;-79
2021/09/28 11:26:06;;;;;;;7.38;1.17;;;;;;;18.36;54.39;101998.09;4986897;28;20120;-78
2021/09/28 11:28:32;;;;;;;9.77;1.17;;;;;;;18.45;55.86;101993.59;4988195;28;20502;-80
2021/09/28 11:31:04;;;;;;;9.88;1.55;;;;;;;18.53;56.11;101990.88;4992549;28;20116;-78